createdAt,value
2017-08-22T00:00:47.406Z,12.40
2017-08-22T00:03:20.787Z,12.40
2017-08-22T00:05:48.385Z,12.40
2017-08-22T00:08:15.978Z,12.30
2017-08-22T00:10:43.616Z,12.30
2017-08-22T00:13:11.195Z,12.30
2017-08-22T00:15:38.837Z,12.30
2017-08-22T00:18:06.710Z,12.20
2017-08-22T00:20:34.310Z,12.20
2017-08-22T00:23:01.902Z,12.20
2017-08-22T00:25:29.531Z,12.20
2017-08-22T00:27:57.125Z,12.10
2017-08-22T00:30:24.710Z,12.10
2017-08-22T00:32:52.358Z,12.10
2017-08-22T00:35:19.943Z,12.10
2017-08-22T00:37:48.305Z,12.10
2017-08-22T00:40:15.934Z,12.10
2017-08-22T00:42:43.543Z,12.10
2017-08-22T00:45:11.118Z,12.10
2017-08-22T00:47:38.740Z,12.10
2017-08-22T00:50:06.331Z,12.10
2017-08-22T00:52:33.939Z,12.10
2017-08-22T00:55:01.579Z,12.10
2017-08-22T00:57:29.172Z,12.10
2017-08-22T00:59:56.776Z,12.10
2017-08-22T01:02:24.411Z,12.10
2017-08-22T01:04:52.018Z,12.20
2017-08-22T01:07:19.599Z,12.20
2017-08-22T01:09:47.254Z,12.30
2017-08-22T01:12:14.853Z,12.30
2017-08-22T01:14:42.440Z,12.40
2017-08-22T01:17:10.055Z,12.50
2017-08-22T01:19:37.654Z,12.50
2017-08-22T01:22:05.245Z,12.60
2017-08-22T01:24:32.895Z,12.60
2017-08-22T01:27:00.487Z,12.70
2017-08-22T01:29:28.090Z,12.70
2017-08-22T01:31:55.726Z,12.70
2017-08-22T01:34:23.318Z,12.70
2017-08-22T01:36:50.894Z,12.70
2017-08-22T01:39:18.539Z,12.70
2017-08-22T01:41:46.150Z,12.60
2017-08-22T01:44:13.746Z,12.60
2017-08-22T01:46:41.385Z,12.60
2017-08-22T01:49:08.968Z,12.60
2017-08-22T01:51:36.562Z,12.60
2017-08-22T01:54:04.214Z,12.60
2017-08-22T01:56:31.804Z,12.60
2017-08-22T01:58:59.385Z,12.60
2017-08-22T02:01:27.002Z,12.60
2017-08-22T02:03:54.597Z,12.60
2017-08-22T02:06:22.188Z,12.70
2017-08-22T02:08:49.968Z,12.70
2017-08-22T02:11:17.585Z,12.60
2017-08-22T02:13:45.150Z,12.60
2017-08-22T02:16:12.790Z,12.60
2017-08-22T02:18:40.389Z,12.50
2017-08-22T02:21:07.968Z,12.50
2017-08-22T02:23:35.596Z,12.50
2017-08-22T02:26:03.195Z,12.50
2017-08-22T02:28:30.785Z,12.40
2017-08-22T02:30:58.421Z,12.40
2017-08-22T02:33:25.990Z,12.40
2017-08-22T02:35:53.569Z,12.40
2017-08-22T02:38:21.210Z,12.40
2017-08-22T02:40:49.071Z,12.50
2017-08-22T02:43:16.663Z,12.50
2017-08-22T02:45:44.305Z,12.50
2017-08-22T02:48:11.871Z,12.60
2017-08-22T02:50:39.464Z,12.60
2017-08-22T02:53:07.101Z,12.60
2017-08-22T02:55:34.693Z,12.70
2017-08-22T02:58:03.039Z,12.70
2017-08-22T03:00:30.682Z,12.70
2017-08-22T03:02:58.282Z,12.80
2017-08-22T03:05:25.855Z,12.80
2017-08-22T03:07:53.474Z,12.80
2017-08-22T03:10:21.060Z,12.90
2017-08-22T03:12:48.639Z,12.90
2017-08-22T03:15:16.273Z,13.00
2017-08-22T03:17:43.851Z,13.00
2017-08-22T03:20:12.217Z,13.00
2017-08-22T03:22:39.963Z,13.00
2017-08-22T03:25:07.530Z,13.00
2017-08-22T03:27:35.100Z,13.00
2017-08-22T03:30:02.753Z,13.00
2017-08-22T03:32:30.346Z,13.00
2017-08-22T03:34:57.916Z,13.00
2017-08-22T03:37:25.944Z,13.00
2017-08-22T03:39:53.548Z,13.00
2017-08-22T03:42:21.141Z,13.00
2017-08-22T03:44:49.006Z,13.00
2017-08-22T03:47:16.593Z,13.00
2017-08-22T03:49:44.184Z,13.00
2017-08-22T03:52:12.355Z,13.00
2017-08-22T03:54:40.307Z,13.00
2017-08-22T03:57:07.928Z,13.00
2017-08-22T03:59:35.560Z,13.00
2017-08-22T04:02:03.130Z,13.00
2017-08-22T04:04:30.733Z,13.10
2017-08-22T04:06:58.364Z,13.10
2017-08-22T04:09:25.958Z,13.00
2017-08-22T04:11:53.540Z,13.00
2017-08-22T04:14:21.166Z,13.00
2017-08-22T04:16:48.748Z,13.00
2017-08-22T04:19:16.357Z,13.00
2017-08-22T04:21:44.006Z,13.00
2017-08-22T04:24:11.596Z,13.00
2017-08-22T04:26:39.198Z,12.90
2017-08-22T04:29:06.820Z,12.90
2017-08-22T04:31:34.425Z,12.90
2017-08-22T04:34:02.030Z,13.00
2017-08-22T04:36:29.695Z,12.90
2017-08-22T04:38:57.302Z,12.90
2017-08-22T04:41:24.884Z,13.00
2017-08-22T04:43:52.538Z,13.00
2017-08-22T04:46:20.106Z,13.10
2017-08-22T04:48:47.706Z,13.10
2017-08-22T04:51:15.336Z,13.10
2017-08-22T04:53:42.906Z,13.10
2017-08-22T04:56:10.478Z,13.10
2017-08-22T04:58:38.117Z,13.10
2017-08-22T05:01:05.700Z,13.10
2017-08-22T05:03:33.274Z,13.20
2017-08-22T05:06:00.918Z,13.20
2017-08-22T05:08:28.507Z,13.10
2017-08-22T05:10:56.080Z,13.20
2017-08-22T05:13:23.720Z,13.20
2017-08-22T05:15:51.318Z,13.20
2017-08-22T05:18:18.910Z,13.30
2017-08-22T05:20:46.666Z,13.30
2017-08-22T05:23:14.259Z,13.40
2017-08-22T05:25:41.835Z,13.40
2017-08-22T05:28:09.480Z,13.50
2017-08-22T05:30:37.051Z,13.60
2017-08-22T05:33:04.632Z,13.60
2017-08-22T05:35:32.265Z,13.70
2017-08-22T05:37:59.856Z,13.70
2017-08-22T05:40:27.430Z,13.80
2017-08-22T05:42:55.076Z,13.90
2017-08-22T05:45:22.654Z,14.00
2017-08-22T05:47:50.226Z,14.50
2017-08-22T05:50:17.856Z,15.00
2017-08-22T05:52:45.431Z,15.60
2017-08-22T05:55:13.026Z,16.60
2017-08-22T05:57:40.659Z,17.00
2017-08-22T06:00:08.236Z,17.30
2017-08-22T06:02:35.818Z,17.80
2017-08-22T06:05:03.458Z,19.30
2017-08-22T06:07:31.045Z,20.80
2017-08-22T06:09:58.633Z,21.10
2017-08-22T06:12:26.281Z,21.80
2017-08-22T06:14:53.887Z,22.80
2017-08-22T06:17:21.468Z,23.40
2017-08-22T06:19:49.167Z,23.80
2017-08-22T06:22:16.743Z,24.20
2017-08-22T06:24:44.324Z,23.80
2017-08-22T06:27:11.948Z,23.80
2017-08-22T06:29:39.537Z,24.40
2017-08-22T06:32:07.113Z,24.10
2017-08-22T06:34:34.718Z,23.20
2017-08-22T06:37:02.293Z,22.80
2017-08-22T06:39:30.294Z,22.60
2017-08-22T06:41:57.929Z,22.30
2017-08-22T06:44:25.512Z,21.90
2017-08-22T06:46:53.091Z,21.50
2017-08-22T06:49:20.928Z,21.30
2017-08-22T06:51:48.494Z,21.20
2017-08-22T06:54:16.069Z,21.30
2017-08-22T06:56:43.708Z,21.30
2017-08-22T06:59:11.298Z,21.30
2017-08-22T07:01:38.872Z,21.20
2017-08-22T07:04:06.487Z,21.10
2017-08-22T07:06:34.089Z,20.90
2017-08-22T07:09:01.668Z,20.50
2017-08-22T07:11:29.292Z,20.20
2017-08-22T07:13:56.898Z,19.90
2017-08-22T07:16:24.487Z,19.60
2017-08-22T07:18:52.104Z,19.40
2017-08-22T07:21:19.688Z,19.20
2017-08-22T07:23:47.276Z,19.10
2017-08-22T07:26:14.908Z,19.10
2017-08-22T07:29:10.691Z,19.10
2017-08-22T07:31:39.246Z,19.20
2017-08-22T07:34:06.917Z,19.20
2017-08-22T07:36:34.508Z,19.30
2017-08-22T07:39:02.249Z,19.30
2017-08-22T07:41:29.864Z,19.50
2017-08-22T07:43:57.440Z,19.60
2017-08-22T07:46:25.073Z,19.90
2017-08-22T07:48:52.656Z,20.10
2017-08-22T07:51:20.239Z,20.30
2017-08-22T07:53:47.856Z,20.50
2017-08-22T07:56:15.456Z,20.90
2017-08-22T07:58:43.026Z,20.90
2017-08-22T08:01:10.652Z,20.80
2017-08-22T08:03:38.251Z,21.20
2017-08-22T08:06:05.835Z,21.40
2017-08-22T08:08:33.626Z,21.40
2017-08-22T08:11:01.215Z,21.30
2017-08-22T08:13:28.777Z,21.40
2017-08-22T08:15:56.408Z,21.40
2017-08-22T08:18:24.002Z,21.40
2017-08-22T08:20:51.600Z,21.40
2017-08-22T08:23:19.250Z,21.40
2017-08-22T08:25:46.832Z,21.30
2017-08-22T08:28:15.162Z,21.40
2017-08-22T08:30:42.766Z,21.40
2017-08-22T08:33:10.360Z,21.10
2017-08-22T08:35:37.959Z,20.80
2017-08-22T08:38:05.578Z,20.50
2017-08-22T08:40:33.156Z,20.20
2017-08-22T08:43:00.767Z,20.10
2017-08-22T08:45:28.654Z,20.00
2017-08-22T08:47:56.240Z,19.80
2017-08-22T08:50:23.824Z,19.90
2017-08-22T08:52:51.446Z,19.80
2017-08-22T08:55:19.018Z,19.60
2017-08-22T08:57:46.601Z,19.40
2017-08-22T09:00:14.239Z,19.50
2017-08-22T09:02:41.838Z,19.50
2017-08-22T09:05:09.415Z,19.70
2017-08-22T09:07:37.075Z,19.80
2017-08-22T09:10:04.665Z,20.00
2017-08-22T09:12:33.021Z,20.50
2017-08-22T09:15:00.669Z,20.50
2017-08-22T09:17:29.016Z,20.70
2017-08-22T09:19:56.586Z,20.70
2017-08-22T09:22:24.194Z,20.70
2017-08-22T09:24:51.763Z,20.80
2017-08-22T09:27:20.104Z,21.00
2017-08-22T09:29:47.732Z,21.00
2017-08-22T09:32:15.311Z,21.30
2017-08-22T09:34:42.985Z,21.50
2017-08-22T09:37:10.613Z,21.90
2017-08-22T09:39:38.187Z,22.00
2017-08-22T09:42:05.772Z,22.10
2017-08-22T09:44:33.421Z,22.50
2017-08-22T09:47:01.001Z,22.60
2017-08-22T09:49:28.584Z,22.80
2017-08-22T09:51:56.275Z,23.00
2017-08-22T09:54:23.847Z,23.00
2017-08-22T09:56:51.433Z,23.00
2017-08-22T09:59:19.059Z,23.00
2017-08-22T10:01:46.651Z,23.00
2017-08-22T10:04:14.228Z,23.00
2017-08-22T10:06:41.847Z,22.70
2017-08-22T10:09:09.438Z,22.60
2017-08-22T10:11:37.036Z,22.50
2017-08-22T10:14:04.657Z,22.70
2017-08-22T10:16:32.246Z,22.70
2017-08-22T10:18:59.838Z,22.60
2017-08-22T10:21:27.456Z,22.60
2017-08-22T10:23:55.040Z,22.70
2017-08-22T10:26:23.387Z,23.00
2017-08-22T10:28:51.009Z,22.90
2017-08-22T10:31:18.572Z,23.10
2017-08-22T10:33:46.143Z,23.10
2017-08-22T10:36:13.767Z,22.90
2017-08-22T10:38:41.358Z,23.10
2017-08-22T10:41:08.930Z,23.30
2017-08-22T10:43:36.578Z,23.40
2017-08-22T10:46:04.169Z,23.60
2017-08-22T10:48:31.759Z,23.70
2017-08-22T10:50:59.383Z,23.60
2017-08-22T10:53:26.974Z,23.80
2017-08-22T10:55:54.564Z,23.60
2017-08-22T10:58:22.171Z,23.60
2017-08-22T11:00:49.748Z,23.40
2017-08-22T11:03:17.319Z,23.10
2017-08-22T11:05:44.937Z,22.70
2017-08-22T11:08:12.563Z,22.40
2017-08-22T11:10:40.158Z,22.30
2017-08-22T11:13:07.780Z,22.00
2017-08-22T11:15:35.360Z,22.10
2017-08-22T11:18:02.936Z,22.00
2017-08-22T11:20:31.319Z,22.10
2017-08-22T11:22:58.901Z,22.10
2017-08-22T11:25:26.488Z,21.80
2017-08-22T11:27:54.104Z,21.70
2017-08-22T11:30:21.700Z,21.50
2017-08-22T11:32:49.290Z,21.40
2017-08-22T11:35:16.923Z,21.40
2017-08-22T11:37:44.508Z,21.40
2017-08-22T11:40:13.723Z,21.20
2017-08-22T11:42:41.357Z,21.20
2017-08-22T11:45:08.954Z,21.30
2017-08-22T11:47:36.613Z,21.60
2017-08-22T11:50:04.251Z,21.60
2017-08-22T11:52:31.831Z,21.60
2017-08-22T11:54:59.406Z,21.40
2017-08-22T11:57:27.041Z,21.20
2017-08-22T11:59:54.634Z,20.90
2017-08-22T12:02:22.235Z,20.80
2017-08-22T12:04:49.852Z,20.70
2017-08-22T12:07:17.432Z,20.60
2017-08-22T12:09:45.012Z,20.60
2017-08-22T12:12:12.655Z,20.80
2017-08-22T12:14:40.278Z,21.10
2017-08-22T12:17:07.864Z,21.50
2017-08-22T12:19:35.480Z,21.80
2017-08-22T12:22:03.069Z,22.00
2017-08-22T12:24:30.661Z,22.00
2017-08-22T12:26:58.286Z,22.00
2017-08-22T12:29:25.869Z,22.00
2017-08-22T12:31:53.469Z,22.10
2017-08-22T12:34:21.111Z,22.40
2017-08-22T12:36:48.696Z,22.40
2017-08-22T12:39:16.280Z,22.30
2017-08-22T12:41:43.901Z,22.30
2017-08-22T12:44:11.493Z,22.50
2017-08-22T12:46:39.067Z,22.50
2017-08-22T12:49:06.695Z,22.20
2017-08-22T12:51:34.263Z,22.10
2017-08-22T12:54:01.894Z,21.90
2017-08-22T12:56:29.539Z,21.80
2017-08-22T12:58:57.130Z,21.70
2017-08-22T13:01:24.722Z,21.60
2017-08-22T13:03:52.348Z,21.50
2017-08-22T13:06:19.942Z,21.50
2017-08-22T13:08:48.279Z,21.40
2017-08-22T13:11:15.891Z,21.40
2017-08-22T13:13:43.476Z,21.40
2017-08-22T13:16:11.053Z,21.50
2017-08-22T13:18:38.690Z,21.60
2017-08-22T13:21:06.283Z,21.60
2017-08-22T13:23:33.860Z,21.80
2017-08-22T13:26:01.481Z,21.80
2017-08-22T13:28:29.829Z,21.60
2017-08-22T13:30:57.398Z,21.60
2017-08-22T13:33:25.035Z,21.50
2017-08-22T13:35:52.626Z,21.30
2017-08-22T13:38:20.226Z,21.30
2017-08-22T13:40:47.854Z,21.20
2017-08-22T13:43:15.430Z,21.00
2017-08-22T13:45:43.016Z,20.90
2017-08-22T13:48:10.665Z,20.80
2017-08-22T13:50:38.234Z,21.10
2017-08-22T13:53:05.798Z,21.30
2017-08-22T13:55:33.407Z,21.60
2017-08-22T13:58:00.989Z,21.80
2017-08-22T14:00:28.582Z,21.90
2017-08-22T14:02:56.426Z,21.70
2017-08-22T14:05:24.018Z,21.50
2017-08-22T14:07:51.613Z,21.30
2017-08-22T14:10:19.246Z,21.00
2017-08-22T14:12:46.834Z,21.10
2017-08-22T14:15:14.416Z,21.20
2017-08-22T14:17:42.060Z,21.40
2017-08-22T14:20:09.641Z,21.30
2017-08-22T14:22:37.202Z,21.40
2017-08-22T14:25:04.944Z,21.20
2017-08-22T14:27:32.533Z,21.30
2017-08-22T14:30:00.113Z,21.10
2017-08-22T14:32:27.755Z,21.00
2017-08-22T14:34:55.345Z,20.90
2017-08-22T14:37:22.938Z,20.90
2017-08-22T14:39:51.333Z,20.80
2017-08-22T14:42:18.904Z,20.80
2017-08-22T14:44:46.485Z,20.60
2017-08-22T14:47:14.125Z,20.60
2017-08-22T14:49:42.478Z,20.80
2017-08-22T14:52:10.071Z,20.80
2017-08-22T14:54:37.713Z,21.00
2017-08-22T14:57:06.060Z,21.20
2017-08-22T14:59:33.631Z,21.20
2017-08-22T15:02:01.245Z,21.10
2017-08-22T15:04:28.840Z,21.10
2017-08-22T15:06:56.477Z,21.10
2017-08-22T15:09:24.928Z,21.10
2017-08-22T15:11:52.562Z,21.10
2017-08-22T15:14:20.197Z,20.90
2017-08-22T15:16:48.649Z,21.00
2017-08-22T15:19:16.554Z,21.00
2017-08-22T15:21:44.198Z,21.00
2017-08-22T15:24:11.875Z,21.00
2017-08-22T15:26:39.522Z,20.90
2017-08-22T15:29:07.173Z,20.80
2017-08-22T15:31:35.779Z,20.80
2017-08-22T15:34:03.435Z,20.70
2017-08-22T15:36:31.049Z,20.70
2017-08-22T15:38:58.751Z,20.70
2017-08-22T15:41:26.473Z,20.60
2017-08-22T15:43:54.115Z,20.60
2017-08-22T15:46:21.884Z,20.50
2017-08-22T15:48:49.739Z,20.40
2017-08-22T15:51:17.387Z,20.50
2017-08-22T15:53:46.133Z,20.50
2017-08-22T15:56:13.826Z,20.60
2017-08-22T15:58:41.436Z,20.50
2017-08-22T16:01:09.086Z,20.60
2017-08-22T16:03:36.658Z,20.50
2017-08-22T16:06:05.273Z,20.40
2017-08-22T16:08:33.310Z,20.30
2017-08-22T16:11:00.882Z,20.20
2017-08-22T16:13:28.483Z,20.10
2017-08-22T16:15:56.122Z,20.10
2017-08-22T16:18:23.727Z,20.10
2017-08-22T16:20:51.368Z,20.10
2017-08-22T16:23:19.009Z,19.90
2017-08-22T16:25:46.604Z,19.80
2017-08-22T16:28:14.192Z,19.70
2017-08-22T16:30:42.003Z,19.60
2017-08-22T16:33:09.579Z,19.70
2017-08-22T16:35:37.160Z,19.70
2017-08-22T16:38:05.041Z,19.70
2017-08-22T16:40:33.197Z,19.50
2017-08-22T16:43:00.787Z,19.50
2017-08-22T16:45:28.417Z,19.40
2017-08-22T16:47:55.992Z,19.30
2017-08-22T16:50:23.587Z,19.20
2017-08-22T16:52:51.203Z,19.20
2017-08-22T16:55:19.019Z,19.10
2017-08-22T16:57:46.858Z,19.00
2017-08-22T17:00:14.545Z,18.90
2017-08-22T17:02:42.201Z,18.80
2017-08-22T17:05:12.039Z,18.70
2017-08-22T17:07:39.809Z,18.70
2017-08-22T17:10:07.388Z,18.60
2017-08-22T17:12:35.130Z,18.50
2017-08-22T17:15:02.914Z,18.40
2017-08-22T17:17:30.498Z,18.20
2017-08-22T17:19:58.079Z,18.20
2017-08-22T17:22:25.896Z,18.10
2017-08-22T17:24:53.795Z,18.00
2017-08-22T17:27:21.409Z,18.00
2017-08-22T17:29:50.014Z,17.80
2017-08-22T17:32:17.600Z,17.80
2017-08-22T17:34:45.191Z,17.80
2017-08-22T17:37:12.853Z,17.70
2017-08-22T17:39:40.431Z,17.60
2017-08-22T17:42:08.016Z,17.60
2017-08-22T17:44:35.898Z,17.40
2017-08-22T17:47:03.582Z,17.40
2017-08-22T17:49:31.205Z,17.30
2017-08-22T17:51:58.858Z,17.20
2017-08-22T17:54:26.440Z,17.20
2017-08-22T17:56:54.780Z,17.00
2017-08-22T17:59:22.420Z,17.00
2017-08-22T18:01:50.025Z,17.00
2017-08-22T18:04:17.616Z,16.90
2017-08-22T18:06:46.010Z,16.70
2017-08-22T18:09:13.578Z,16.70
2017-08-22T18:11:41.198Z,16.70
2017-08-22T18:14:08.864Z,16.60
2017-08-22T18:16:36.456Z,16.60
2017-08-22T18:19:04.849Z,16.40
2017-08-22T18:21:32.502Z,16.40
2017-08-22T18:24:00.172Z,16.40
2017-08-22T18:26:27.792Z,16.30
2017-08-22T18:28:55.577Z,16.20
2017-08-22T18:31:23.934Z,16.10
2017-08-22T18:33:51.625Z,16.10
2017-08-22T18:36:20.402Z,16.00
2017-08-22T18:38:48.082Z,15.90
2017-08-22T18:41:15.660Z,15.90
2017-08-22T18:43:43.324Z,15.80
2017-08-22T18:46:11.255Z,15.70
2017-08-22T18:48:38.934Z,15.70
2017-08-22T18:51:07.469Z,15.60
2017-08-22T18:53:35.116Z,15.60
2017-08-22T18:56:02.742Z,15.50
2017-08-22T18:58:30.416Z,15.50
2017-08-22T19:00:57.991Z,15.50
2017-08-22T19:03:26.180Z,15.40
2017-08-22T19:05:53.809Z,15.30
2017-08-22T19:08:21.404Z,15.20
2017-08-22T19:10:49.003Z,15.20
2017-08-22T19:13:16.636Z,15.20
2017-08-22T19:15:44.273Z,15.10
2017-08-22T19:18:18.597Z,15.00
2017-08-22T19:20:46.284Z,15.00
2017-08-22T19:23:13.859Z,15.00
2017-08-22T19:25:41.493Z,14.90
2017-08-22T19:28:09.078Z,14.90
2017-08-22T19:30:36.646Z,14.80
2017-08-22T19:33:04.294Z,14.80
2017-08-22T19:35:31.890Z,14.70
2017-08-22T19:37:59.468Z,14.70
2017-08-22T19:40:27.075Z,14.70
2017-08-22T19:42:55.424Z,14.60
2017-08-22T19:45:23.000Z,14.60
2017-08-22T19:47:51.306Z,14.50
2017-08-22T19:50:18.874Z,14.50
2017-08-22T19:52:48.380Z,14.50
2017-08-22T19:55:16.283Z,14.40
2017-08-22T19:57:44.442Z,14.40
2017-08-22T20:00:12.185Z,14.40
2017-08-22T20:02:39.874Z,14.40
2017-08-22T20:05:07.471Z,14.30
2017-08-22T20:07:35.071Z,14.30
2017-08-22T20:10:02.710Z,14.30
2017-08-22T20:12:30.298Z,14.20
2017-08-22T20:14:57.896Z,14.20
2017-08-22T20:17:25.542Z,14.20
2017-08-22T20:19:53.120Z,14.10
2017-08-22T20:22:20.700Z,14.10
2017-08-22T20:24:48.342Z,14.00
2017-08-22T20:27:15.910Z,14.00
2017-08-22T20:29:43.493Z,14.00
2017-08-22T20:34:40.313Z,13.90
2017-08-22T20:37:07.899Z,13.90
2017-08-22T20:39:35.485Z,13.90
2017-08-22T20:42:03.112Z,13.80
2017-08-22T20:44:30.705Z,13.80
2017-08-22T20:46:58.302Z,13.70
2017-08-22T20:49:26.690Z,13.70
2017-08-22T20:51:54.277Z,13.70
2017-08-22T20:54:21.873Z,13.70
2017-08-22T20:56:49.750Z,13.70
2017-08-22T20:59:17.323Z,13.60
2017-08-22T21:01:44.918Z,13.60
2017-08-22T21:04:12.569Z,13.60
2017-08-22T21:06:40.139Z,13.60
2017-08-22T21:09:07.719Z,13.60
2017-08-22T21:11:35.378Z,13.50
2017-08-22T21:14:03.733Z,13.50
2017-08-22T21:16:32.092Z,13.40
2017-08-22T21:18:59.716Z,13.40
2017-08-22T21:21:27.301Z,13.40
2017-08-22T21:23:54.877Z,13.40
2017-08-22T21:26:22.513Z,13.30
2017-08-22T21:28:50.083Z,13.20
2017-08-22T21:31:17.670Z,13.20
2017-08-22T21:33:45.297Z,13.20
2017-08-22T21:36:12.898Z,13.20
2017-08-22T21:38:40.465Z,13.10
2017-08-22T21:41:08.265Z,13.10
2017-08-22T21:43:35.854Z,13.10
2017-08-22T21:46:03.449Z,13.00
2017-08-22T21:48:31.526Z,13.00
2017-08-22T21:50:59.109Z,13.00
2017-08-22T21:53:26.714Z,12.90
2017-08-22T21:55:54.344Z,12.90
2017-08-22T21:58:21.920Z,12.90
2017-08-22T22:00:49.514Z,12.90
2017-08-22T22:03:17.152Z,12.90
2017-08-22T22:05:44.718Z,12.90
2017-08-22T22:08:12.303Z,12.80
2017-08-22T22:10:39.944Z,12.80
2017-08-22T22:13:07.520Z,12.80
2017-08-22T22:15:35.098Z,12.80
2017-08-22T22:18:02.733Z,12.70
2017-08-22T22:20:30.316Z,12.80
2017-08-22T22:22:57.919Z,12.70
2017-08-22T22:25:25.548Z,12.70
2017-08-22T22:27:53.132Z,12.70
2017-08-22T22:30:20.720Z,12.70
2017-08-22T22:32:48.367Z,12.70
2017-08-22T22:35:15.930Z,12.60
2017-08-22T22:37:43.525Z,12.60
2017-08-22T22:40:11.933Z,12.50
2017-08-22T22:42:39.499Z,12.50
2017-08-22T22:45:07.080Z,12.50
2017-08-22T22:47:34.724Z,12.50
2017-08-22T22:50:02.308Z,12.50
2017-08-22T22:52:30.668Z,12.40
2017-08-22T22:54:58.297Z,12.40
2017-08-22T22:57:26.084Z,12.40
2017-08-22T22:59:53.671Z,12.40
2017-08-22T23:02:21.299Z,12.40
2017-08-22T23:04:48.893Z,12.30
2017-08-22T23:07:16.552Z,12.30
2017-08-22T23:09:44.199Z,12.30
2017-08-22T23:12:12.544Z,12.20
2017-08-22T23:14:40.127Z,12.20
2017-08-22T23:17:07.756Z,12.20
2017-08-22T23:19:35.354Z,12.20
2017-08-22T23:22:02.942Z,12.20
2017-08-22T23:24:30.578Z,12.20
2017-08-22T23:26:58.171Z,12.20
2017-08-22T23:29:25.761Z,12.20
2017-08-22T23:31:53.403Z,12.20
2017-08-22T23:34:20.984Z,12.20
2017-08-22T23:36:49.341Z,12.10
2017-08-22T23:39:16.966Z,12.10
2017-08-22T23:41:44.555Z,12.10
2017-08-22T23:44:12.170Z,12.10
2017-08-22T23:46:39.792Z,12.10
2017-08-22T23:49:07.377Z,12.00
2017-08-22T23:51:34.956Z,13.40
2017-08-22T23:54:02.576Z,12.00
2017-08-22T23:56:30.171Z,12.00
2017-08-22T23:58:57.746Z,12.00
